createdAt,value
2019-05-02T00:01:02.950Z,7.90
2019-05-02T00:03:36.078Z,8.23
2019-05-02T00:06:07.412Z,8.87
2019-05-02T00:08:35.088Z,9.63
2019-05-02T00:11:05.992Z,8.13
2019-05-02T00:13:35.066Z,9.03
2019-05-02T00:16:04.140Z,8.27
2019-05-02T00:18:37.337Z,9.33
2019-05-02T00:21:04.562Z,9.23
2019-05-02T00:23:33.628Z,8.90
2019-05-02T00:26:02.721Z,9.70
2019-05-02T00:28:31.864Z,9.60
2019-05-02T00:31:00.925Z,9.70
2019-05-02T00:33:34.511Z,9.67
2019-05-02T00:36:00.824Z,10.80
2019-05-02T00:38:33.261Z,9.07
2019-05-02T00:41:02.215Z,8.87
2019-05-02T00:43:34.629Z,8.43
2019-05-02T00:46:03.636Z,8.13
2019-05-02T00:48:37.716Z,8.60
2019-05-02T00:51:06.778Z,8.70
2019-05-02T00:53:35.924Z,8.37
2019-05-02T00:56:09.050Z,8.40
2019-05-02T00:58:36.985Z,8.47
2019-05-02T01:01:24.305Z,9.23
2019-05-02T01:03:56.845Z,9.00
2019-05-02T01:06:27.056Z,9.10
2019-05-02T01:08:56.094Z,8.50
2019-05-02T01:11:28.364Z,8.80
2019-05-02T01:13:57.747Z,8.77
2019-05-02T01:16:26.941Z,9.40
2019-05-02T01:18:56.019Z,8.10
2019-05-02T01:21:24.999Z,8.07
2019-05-02T01:23:54.162Z,8.53
2019-05-02T01:26:29.309Z,8.37
2019-05-02T01:29:17.831Z,9.07
2019-05-02T01:31:59.768Z,8.80
2019-05-02T01:34:43.871Z,9.10
2019-05-02T01:37:26.546Z,9.30
2019-05-02T01:39:55.662Z,8.23
2019-05-02T01:42:24.732Z,8.90
2019-05-02T01:44:53.928Z,8.53
2019-05-02T01:47:22.966Z,7.97
2019-05-02T01:49:57.069Z,8.67
2019-05-02T01:52:23.717Z,8.27
2019-05-02T01:54:53.661Z,8.70
2019-05-02T01:57:22.720Z,8.93
2019-05-02T01:59:51.743Z,8.80
2019-05-02T02:02:20.811Z,8.90
2019-05-02T02:04:52.206Z,9.83
2019-05-02T02:07:21.250Z,9.90
2019-05-02T02:09:50.404Z,10.33
2019-05-02T02:12:19.439Z,9.67
2019-05-02T02:14:53.429Z,9.73
2019-05-02T02:17:19.357Z,8.57
2019-05-02T02:19:54.377Z,8.43
2019-05-02T02:22:39.073Z,8.20
2019-05-02T02:25:24.891Z,7.73
2019-05-02T02:27:54.980Z,8.27
2019-05-02T02:30:26.704Z,8.77
2019-05-02T02:33:00.363Z,9.63
2019-05-02T02:35:26.633Z,9.17
2019-05-02T02:37:57.083Z,10.00
2019-05-02T02:40:32.840Z,9.03
2019-05-02T02:42:57.071Z,8.83
2019-05-02T02:45:31.686Z,9.07
2019-05-02T02:48:02.646Z,9.13
2019-05-02T02:50:36.720Z,8.47
2019-05-02T02:53:02.687Z,8.30
2019-05-02T02:55:31.813Z,8.17
2019-05-02T02:58:04.752Z,8.43
2019-05-02T03:00:31.684Z,7.73
2019-05-02T03:03:00.785Z,9.07
2019-05-02T03:05:29.864Z,8.93
2019-05-02T03:07:59.417Z,8.83
2019-05-02T03:10:29.723Z,8.97
2019-05-02T03:13:21.943Z,7.73
2019-05-02T03:15:51.310Z,8.47
2019-05-02T03:18:20.329Z,8.43
2019-05-02T03:20:49.453Z,8.20
2019-05-02T03:23:23.991Z,8.77
2019-05-02T03:25:51.355Z,9.20
2019-05-02T03:28:21.081Z,9.00
2019-05-02T03:30:50.234Z,8.37
2019-05-02T03:33:20.494Z,9.03
2019-05-02T03:35:49.685Z,8.67
2019-05-02T03:38:31.081Z,8.97
2019-05-02T03:40:49.645Z,9.37
2019-05-02T03:43:25.529Z,8.47
2019-05-02T03:45:49.715Z,8.40
2019-05-02T03:48:25.577Z,8.63
2019-05-02T03:50:49.807Z,9.40
2019-05-02T03:53:24.874Z,8.40
2019-05-02T03:55:50.887Z,8.97
2019-05-02T03:58:19.961Z,8.87
2019-05-02T04:01:00.359Z,9.17
2019-05-02T04:03:20.382Z,7.97
2019-05-02T04:05:49.479Z,9.23
2019-05-02T04:08:20.765Z,8.50
2019-05-02T04:11:23.458Z,9.50
2019-05-02T04:13:53.387Z,9.37
2019-05-02T04:16:26.101Z,9.53
2019-05-02T04:18:58.247Z,9.77
2019-05-02T04:21:28.682Z,9.23
2019-05-02T04:24:07.220Z,9.87
2019-05-02T04:26:28.954Z,10.87
2019-05-02T04:28:58.286Z,10.87
2019-05-02T04:31:31.785Z,10.13
2019-05-02T04:33:58.161Z,10.27
2019-05-02T04:36:27.270Z,10.43
2019-05-02T04:38:59.318Z,10.17
2019-05-02T04:41:30.338Z,10.00
2019-05-02T04:44:01.394Z,9.53
2019-05-02T04:46:31.250Z,9.60
2019-05-02T04:48:59.752Z,10.67
2019-05-02T04:51:31.950Z,9.67
2019-05-02T04:54:00.791Z,11.50
2019-05-02T04:56:29.831Z,10.87
2019-05-02T04:59:01.792Z,10.47
2019-05-02T05:01:41.962Z,10.93
2019-05-02T05:04:03.006Z,10.37
2019-05-02T05:06:32.383Z,12.03
2019-05-02T05:09:04.043Z,11.47
2019-05-02T05:11:32.284Z,11.30
2019-05-02T05:14:01.417Z,12.17
2019-05-02T05:16:30.507Z,12.00
2019-05-02T05:19:00.113Z,12.40
2019-05-02T05:21:29.277Z,11.13
2019-05-02T05:24:18.171Z,12.07
2019-05-02T05:26:51.882Z,12.10
2019-05-02T05:29:23.250Z,11.33
2019-05-02T05:31:55.040Z,12.13
2019-05-02T05:34:27.453Z,11.97
2019-05-02T05:36:54.575Z,11.53
2019-05-02T05:39:23.650Z,13.50
2019-05-02T05:41:52.692Z,13.37
2019-05-02T05:44:23.416Z,14.90
2019-05-02T05:46:52.652Z,15.17
2019-05-02T05:49:21.976Z,13.90
2019-05-02T05:51:54.454Z,16.57
2019-05-02T05:54:22.218Z,16.10
2019-05-02T05:56:51.694Z,16.80
2019-05-02T05:59:22.209Z,16.73
2019-05-02T06:01:51.898Z,16.83
2019-05-02T06:04:23.650Z,17.33
2019-05-02T06:06:53.949Z,18.30
2019-05-02T06:09:26.287Z,18.77
2019-05-02T06:11:55.368Z,21.53
2019-05-02T06:14:26.340Z,21.47
2019-05-02T06:16:55.629Z,20.70
2019-05-02T06:19:24.752Z,20.87
2019-05-02T06:21:53.915Z,22.73
2019-05-02T06:24:23.090Z,23.63
2019-05-02T06:26:52.163Z,22.70
2019-05-02T06:29:21.239Z,23.37
2019-05-02T06:31:50.403Z,22.67
2019-05-02T06:34:19.413Z,23.00
2019-05-02T06:36:48.565Z,22.03
2019-05-02T06:39:17.588Z,23.00
2019-05-02T06:41:46.720Z,24.60
2019-05-02T06:44:18.560Z,24.23
2019-05-02T06:46:46.755Z,23.30
2019-05-02T06:49:15.847Z,22.90
2019-05-02T06:51:45.039Z,22.83
2019-05-02T06:54:18.065Z,21.03
2019-05-02T06:56:47.965Z,24.63
2019-05-02T06:59:18.399Z,23.60
2019-05-02T07:01:46.655Z,25.73
2019-05-02T07:04:17.397Z,24.43
2019-05-02T07:06:58.255Z,24.03
2019-05-02T07:09:18.343Z,25.73
2019-05-02T07:11:56.969Z,27.37
2019-05-02T07:14:18.577Z,26.47
2019-05-02T07:17:08.047Z,29.33
2019-05-02T07:19:40.380Z,30.10
2019-05-02T07:22:09.536Z,30.50
2019-05-02T07:24:38.596Z,33.23
2019-05-02T07:27:07.678Z,32.80
2019-05-02T07:29:36.979Z,32.80
2019-05-02T07:32:06.322Z,32.57
2019-05-02T07:34:35.354Z,31.93
2019-05-02T07:37:08.535Z,31.17
2019-05-02T07:39:36.101Z,30.57
2019-05-02T07:42:07.935Z,31.93
2019-05-02T07:44:37.110Z,29.80
2019-05-02T07:47:06.223Z,29.67
2019-05-02T07:49:35.294Z,30.27
2019-05-02T07:52:04.414Z,31.70
2019-05-02T07:54:33.502Z,31.10
2019-05-02T07:57:02.650Z,42.40
2019-05-02T07:59:31.888Z,35.10
2019-05-02T08:02:01.001Z,32.07
2019-05-02T08:04:30.129Z,32.50
2019-05-02T08:06:59.180Z,34.57
2019-05-02T08:09:28.218Z,35.57
2019-05-02T08:11:57.259Z,33.83
2019-05-02T08:14:29.317Z,35.40
2019-05-02T08:17:05.334Z,35.00
2019-05-02T08:19:27.992Z,35.57
2019-05-02T08:21:57.126Z,34.37
2019-05-02T08:24:26.191Z,36.07
2019-05-02T08:27:23.359Z,34.87
2019-05-02T08:29:53.184Z,34.50
2019-05-02T08:32:22.244Z,35.30
2019-05-02T08:34:53.417Z,32.27
2019-05-02T08:37:22.465Z,32.57
2019-05-02T08:39:51.586Z,33.17
2019-05-02T08:42:20.735Z,32.73
2019-05-02T08:44:51.525Z,32.97
2019-05-02T08:47:23.845Z,30.37
2019-05-02T08:49:54.651Z,32.87
2019-05-02T08:52:22.538Z,32.63
2019-05-02T08:54:53.163Z,32.87
2019-05-02T08:57:23.709Z,28.83
2019-05-02T08:59:55.463Z,29.97
2019-05-02T09:02:25.909Z,33.07
2019-05-02T09:04:58.798Z,30.80
2019-05-02T09:07:25.874Z,29.20
2019-05-02T09:09:55.553Z,29.03
2019-05-02T09:12:24.866Z,29.47
2019-05-02T09:14:54.296Z,28.87
2019-05-02T09:17:35.494Z,29.20
2019-05-02T09:20:02.278Z,29.23
2019-05-02T09:22:25.423Z,29.70
2019-05-02T09:24:54.547Z,28.63
2019-05-02T09:27:23.634Z,30.47
2019-05-02T09:29:52.956Z,29.13
2019-05-02T09:32:26.282Z,27.97
2019-05-02T09:34:56.627Z,28.67
2019-05-02T09:37:23.944Z,29.07
2019-05-02T09:39:53.009Z,29.13
2019-05-02T09:42:22.196Z,27.10
2019-05-02T09:44:53.343Z,27.33
2019-05-02T09:47:27.222Z,28.33
2019-05-02T09:50:12.865Z,28.13
2019-05-02T09:52:44.094Z,28.33
2019-05-02T09:55:13.466Z,26.80
2019-05-02T09:57:42.873Z,28.77
2019-05-02T10:00:14.174Z,30.07
2019-05-02T10:02:43.769Z,28.50
2019-05-02T10:05:12.897Z,28.00
2019-05-02T10:07:42.046Z,28.93
2019-05-02T10:10:12.604Z,26.97
2019-05-02T10:12:42.735Z,25.17
2019-05-02T10:15:12.911Z,25.57
2019-05-02T10:17:46.453Z,26.73
2019-05-02T10:20:12.933Z,26.47
2019-05-02T10:22:43.825Z,24.67
2019-05-02T10:25:13.132Z,27.83
2019-05-02T10:27:43.855Z,27.53
2019-05-02T10:30:15.584Z,25.73
2019-05-02T10:32:47.171Z,25.73
2019-05-02T10:35:19.323Z,25.70
2019-05-02T10:37:48.433Z,26.10
2019-05-02T10:40:17.655Z,26.17
2019-05-02T10:42:47.998Z,25.93
2019-05-02T10:45:17.185Z,28.43
2019-05-02T10:47:46.328Z,27.47
2019-05-02T10:50:26.098Z,24.30
2019-05-02T10:52:56.233Z,25.33
2019-05-02T10:55:25.314Z,24.97
2019-05-02T10:57:54.392Z,24.60
2019-05-02T11:00:26.409Z,25.37
2019-05-02T11:03:12.050Z,26.13
2019-05-02T11:05:42.095Z,24.27
2019-05-02T11:08:12.010Z,25.70
2019-05-02T11:10:42.276Z,24.83
2019-05-02T11:13:22.185Z,25.33
2019-05-02T11:16:12.233Z,26.70
2019-05-02T11:19:09.259Z,23.77
2019-05-02T11:21:38.430Z,21.07
2019-05-02T11:24:07.525Z,23.47
2019-05-02T11:26:36.702Z,20.70
2019-05-02T11:29:06.129Z,20.70
2019-05-02T11:31:35.223Z,22.90
2019-05-02T11:34:04.279Z,23.60
2019-05-02T11:36:33.407Z,22.87
2019-05-02T11:39:14.333Z,25.27
2019-05-02T11:41:33.326Z,24.77
2019-05-02T11:44:03.007Z,24.30
2019-05-02T11:46:33.009Z,27.07
2019-05-02T11:49:02.538Z,25.77
2019-05-02T11:51:32.747Z,26.07
2019-05-02T11:54:05.057Z,26.13
2019-05-02T11:56:33.110Z,24.50
2019-05-02T11:59:02.781Z,25.50
2019-05-02T12:01:37.147Z,25.87
2019-05-02T12:04:07.605Z,25.63
2019-05-02T12:06:35.248Z,24.00
2019-05-02T12:09:06.169Z,22.30
2019-05-02T12:11:36.680Z,21.20
2019-05-02T12:14:05.815Z,19.60
2019-05-02T12:16:34.941Z,20.10
2019-05-02T12:19:11.376Z,19.70
2019-05-02T12:21:35.048Z,21.43
2019-05-02T12:24:04.307Z,21.33
2019-05-02T12:26:33.491Z,23.77
2019-05-02T12:29:02.800Z,22.37
2019-05-02T12:31:32.959Z,20.43
2019-05-02T12:34:04.375Z,20.03
2019-05-02T12:36:33.707Z,19.63
2019-05-02T12:39:03.078Z,19.50
2019-05-02T12:41:33.194Z,16.87
2019-05-02T12:44:03.427Z,18.43
2019-05-02T12:46:32.713Z,18.00
2019-05-02T12:49:03.044Z,19.57
2019-05-02T12:51:32.315Z,20.40
2019-05-02T12:54:02.458Z,18.37
2019-05-02T12:56:32.372Z,18.97
2019-05-02T12:59:02.357Z,18.37
2019-05-02T13:01:32.946Z,17.13
2019-05-02T13:04:05.742Z,17.27
2019-05-02T13:06:37.086Z,17.87
2019-05-02T13:09:09.265Z,18.23
2019-05-02T13:12:02.814Z,16.90
2019-05-02T13:14:32.604Z,18.57
2019-05-02T13:17:05.572Z,16.90
2019-05-02T13:19:39.956Z,18.30
2019-05-02T13:22:21.769Z,19.17
2019-05-02T13:25:02.843Z,18.83
2019-05-02T13:27:43.311Z,17.77
2019-05-02T13:30:04.285Z,19.97
2019-05-02T13:32:38.925Z,19.83
2019-05-02T13:35:22.448Z,19.20
2019-05-02T13:37:54.413Z,20.40
2019-05-02T13:40:28.331Z,18.00
2019-05-02T13:42:57.511Z,19.07
2019-05-02T13:45:41.991Z,18.60
2019-05-02T13:48:12.298Z,18.53
2019-05-02T13:50:42.384Z,16.10
2019-05-02T13:53:12.157Z,17.27
2019-05-02T13:55:46.372Z,16.50
2019-05-02T13:58:21.623Z,16.53
2019-05-02T14:00:49.018Z,16.60
2019-05-02T14:03:18.224Z,16.43
2019-05-02T14:05:51.786Z,16.90
2019-05-02T14:08:37.254Z,15.40
2019-05-02T14:11:24.110Z,15.90
2019-05-02T14:13:53.198Z,16.13
2019-05-02T14:16:24.831Z,16.47
2019-05-02T14:18:53.893Z,15.33
2019-05-02T14:21:23.058Z,16.00
2019-05-02T14:23:52.415Z,15.97
2019-05-02T14:26:30.353Z,18.57
2019-05-02T14:28:53.243Z,18.90
2019-05-02T14:31:22.433Z,19.63
2019-05-02T14:34:09.161Z,20.17
2019-05-02T14:36:39.888Z,22.77
2019-05-02T14:39:09.473Z,20.23
2019-05-02T14:41:42.149Z,22.23
2019-05-02T14:44:09.312Z,22.50
2019-05-02T14:46:39.601Z,23.20
2019-05-02T14:49:11.933Z,24.90
2019-05-02T14:51:41.749Z,24.47
2019-05-02T14:54:12.064Z,25.63
2019-05-02T14:57:06.032Z,23.50
2019-05-02T14:59:35.080Z,24.60
2019-05-02T15:02:07.779Z,23.70
2019-05-02T15:04:38.166Z,23.40
2019-05-02T15:07:08.784Z,22.23
2019-05-02T15:09:37.859Z,23.60
2019-05-02T15:12:13.795Z,22.43
2019-05-02T15:14:38.333Z,22.27
2019-05-02T15:17:07.740Z,23.20
2019-05-02T15:20:02.813Z,22.93
2019-05-02T15:22:35.772Z,23.20
2019-05-02T15:25:02.850Z,22.43
2019-05-02T15:27:40.180Z,23.83
2019-05-02T15:30:06.845Z,23.73
2019-05-02T15:32:52.092Z,24.37
2019-05-02T15:35:46.259Z,25.73
2019-05-02T15:38:24.437Z,25.80
2019-05-02T15:40:50.478Z,24.70
2019-05-02T15:43:16.974Z,25.57
2019-05-02T15:45:46.140Z,25.73
2019-05-02T15:48:22.560Z,26.10
2019-05-02T15:50:52.199Z,26.60
2019-05-02T15:53:23.469Z,25.40
2019-05-02T15:55:52.763Z,25.43
2019-05-02T15:58:27.659Z,25.30
2019-05-02T16:01:24.928Z,24.13
2019-05-02T16:03:55.253Z,25.00
2019-05-02T16:06:30.905Z,23.37
2019-05-02T16:08:56.439Z,23.20
2019-05-02T16:11:25.675Z,24.60
2019-05-02T16:13:56.006Z,25.00
2019-05-02T16:16:26.408Z,26.30
2019-05-02T16:18:55.804Z,26.43
2019-05-02T16:21:51.913Z,23.93
2019-05-02T16:24:22.934Z,24.43
2019-05-02T16:26:53.146Z,24.93
2019-05-02T16:29:28.175Z,23.57
2019-05-02T16:32:03.614Z,23.37
2019-05-02T16:34:35.510Z,23.80
2019-05-02T16:37:13.591Z,23.23
2019-05-02T16:39:49.223Z,22.40
2019-05-02T16:42:13.281Z,20.13
2019-05-02T16:44:42.913Z,18.47
2019-05-02T16:47:13.897Z,18.67
2019-05-02T16:49:43.519Z,19.70
2019-05-02T16:52:13.732Z,18.70
2019-05-02T16:54:47.877Z,18.63
2019-05-02T16:57:22.179Z,18.87
2019-05-02T16:59:55.863Z,18.87
2019-05-02T17:02:21.845Z,20.33
2019-05-02T17:04:54.366Z,20.10
2019-05-02T17:07:29.800Z,22.23
2019-05-02T17:10:25.120Z,21.13
2019-05-02T17:12:57.678Z,22.67
2019-05-02T17:15:35.313Z,19.63
2019-05-02T17:18:12.435Z,20.07
2019-05-02T17:20:35.648Z,20.07
2019-05-02T17:23:07.579Z,18.50
2019-05-02T17:25:35.784Z,20.73
2019-05-02T17:28:12.731Z,18.40
2019-05-02T17:30:42.538Z,17.87
2019-05-02T17:33:14.314Z,18.47
2019-05-02T17:35:49.483Z,18.67
2019-05-02T17:38:14.302Z,18.10
2019-05-02T17:40:43.423Z,20.90
2019-05-02T17:43:12.636Z,19.10
2019-05-02T17:45:42.242Z,18.40
2019-05-02T17:48:16.209Z,17.50
2019-05-02T17:50:59.502Z,17.60
2019-05-02T17:53:33.619Z,18.00
2019-05-02T17:56:01.730Z,16.97
2019-05-02T17:58:31.986Z,17.70
2019-05-02T18:01:02.790Z,18.27
2019-05-02T18:03:35.106Z,18.53
2019-05-02T18:06:07.568Z,17.80
2019-05-02T18:08:35.049Z,18.30
2019-05-02T18:11:04.171Z,17.40
2019-05-02T18:13:34.229Z,18.77
2019-05-02T18:16:07.812Z,18.20
2019-05-02T18:18:37.422Z,18.37
2019-05-02T18:21:06.964Z,18.43
2019-05-02T18:23:36.156Z,19.30
2019-05-02T18:26:06.442Z,19.33
2019-05-02T18:28:46.970Z,19.57
2019-05-02T18:31:07.749Z,20.17
2019-05-02T18:33:41.174Z,20.80
2019-05-02T18:36:07.824Z,21.23
2019-05-02T18:38:36.893Z,22.67
2019-05-02T18:41:07.776Z,20.57
2019-05-02T18:43:43.467Z,20.37
2019-05-02T18:46:07.913Z,21.43
2019-05-02T18:48:44.227Z,19.43
2019-05-02T18:51:07.704Z,19.23
2019-05-02T18:53:36.817Z,18.93
2019-05-02T18:56:05.921Z,21.13
2019-05-02T18:58:36.355Z,19.70
2019-05-02T19:01:08.370Z,22.07
2019-05-02T19:03:36.762Z,18.93
2019-05-02T19:06:05.918Z,22.17
2019-05-02T19:08:45.257Z,19.27
2019-05-02T19:11:12.020Z,20.37
2019-05-02T19:13:42.606Z,19.70
2019-05-02T19:16:08.337Z,19.07
2019-05-02T19:18:37.414Z,20.00
2019-05-02T19:21:06.476Z,20.10
2019-05-02T19:23:36.230Z,20.53
2019-05-02T19:26:09.839Z,20.07
2019-05-02T19:28:54.386Z,20.37
2019-05-02T19:31:25.397Z,21.50
2019-05-02T19:33:54.486Z,21.83
2019-05-02T19:36:27.438Z,21.67
2019-05-02T19:38:56.918Z,21.83
2019-05-02T19:41:25.069Z,21.00
2019-05-02T19:43:56.032Z,21.00
2019-05-02T19:46:38.876Z,21.57
2019-05-02T19:49:06.958Z,22.03
2019-05-02T19:51:37.343Z,22.47
2019-05-02T19:54:07.130Z,19.27
2019-05-02T19:56:43.990Z,20.80
2019-05-02T19:59:07.087Z,19.83
2019-05-02T20:01:36.155Z,20.77
2019-05-02T20:04:06.394Z,19.00
2019-05-02T20:06:36.795Z,18.67
2019-05-02T20:09:08.456Z,18.20
2019-05-02T20:11:37.830Z,17.50
2019-05-02T20:14:09.694Z,16.80
2019-05-02T20:16:47.177Z,18.33
2019-05-02T20:19:17.398Z,17.50
2019-05-02T20:22:18.594Z,17.03
2019-05-02T20:24:59.912Z,16.23
2019-05-02T20:27:28.259Z,15.20
2019-05-02T20:29:56.894Z,15.07
2019-05-02T20:32:26.033Z,15.97
2019-05-02T20:34:55.530Z,15.60
2019-05-02T20:37:24.877Z,14.87
2019-05-02T20:39:54.044Z,13.83
2019-05-02T20:42:23.159Z,14.00
2019-05-02T20:44:52.758Z,13.47
2019-05-02T20:47:23.517Z,13.70
2019-05-02T20:49:52.731Z,13.80
2019-05-02T20:52:22.148Z,14.43
2019-05-02T20:54:52.355Z,14.10
2019-05-02T20:57:21.663Z,13.27
2019-05-02T20:59:52.562Z,12.57
2019-05-02T21:02:21.852Z,14.20
2019-05-02T21:04:52.396Z,12.33
2019-05-02T21:07:42.421Z,11.23
2019-05-02T21:10:18.203Z,13.50
2019-05-02T21:12:47.350Z,14.30
2019-05-02T21:15:18.238Z,14.27
2019-05-02T21:17:48.245Z,13.87
2019-05-02T21:20:17.888Z,12.93
2019-05-02T21:22:46.995Z,13.23
2019-05-02T21:25:16.244Z,10.83
2019-05-02T21:27:45.426Z,10.27
2019-05-02T21:30:15.439Z,10.80
2019-05-02T21:32:44.517Z,11.53
2019-05-02T21:35:13.760Z,12.87
2019-05-02T21:37:43.470Z,13.87
2019-05-02T21:40:12.697Z,13.87
2019-05-02T21:42:42.515Z,12.90
2019-05-02T21:45:13.172Z,13.83
2019-05-02T21:47:43.925Z,12.57
2019-05-02T21:50:34.845Z,13.73
2019-05-02T21:53:13.554Z,11.77
2019-05-02T21:55:52.044Z,11.77
2019-05-02T21:58:21.950Z,11.43
2019-05-02T22:00:57.390Z,12.17
2019-05-02T22:03:26.538Z,11.33
2019-05-02T22:05:55.716Z,10.57
2019-05-02T22:08:26.340Z,10.43
2019-05-02T22:10:55.462Z,10.63
2019-05-02T22:13:24.676Z,10.03
2019-05-02T22:15:53.820Z,10.57
2019-05-02T22:18:23.045Z,10.43
2019-05-02T22:20:52.416Z,10.53
2019-05-02T22:23:21.617Z,10.00
2019-05-02T22:25:52.522Z,9.63
2019-05-02T22:28:22.109Z,9.87
2019-05-02T22:30:54.373Z,9.37
2019-05-02T22:33:22.321Z,9.43
2019-05-02T22:35:52.380Z,9.97
2019-05-02T22:38:35.086Z,7.13
2019-05-02T22:41:04.371Z,10.00
2019-05-02T22:43:35.170Z,9.93
2019-05-02T22:46:06.814Z,9.33
2019-05-02T22:48:38.330Z,9.17
2019-05-02T22:51:07.420Z,9.57
2019-05-02T22:53:36.603Z,9.30
2019-05-02T22:56:05.743Z,9.47
2019-05-02T22:58:34.943Z,11.53
2019-05-02T23:01:04.982Z,11.37
2019-05-02T23:03:34.106Z,11.00
2019-05-02T23:06:03.224Z,9.67
2019-05-02T23:08:32.394Z,9.83
2019-05-02T23:11:03.402Z,8.80
2019-05-02T23:13:32.794Z,9.30
2019-05-02T23:16:02.865Z,9.40
2019-05-02T23:18:32.086Z,10.20
2019-05-02T23:21:02.112Z,8.70
2019-05-02T23:23:32.718Z,9.83
2019-05-02T23:26:22.428Z,10.67
2019-05-02T23:28:52.422Z,9.87
2019-05-02T23:31:22.560Z,11.13
2019-05-02T23:34:02.306Z,11.60
2019-05-02T23:36:32.494Z,11.83
2019-05-02T23:39:02.018Z,12.23
2019-05-02T23:41:32.912Z,13.63
2019-05-02T23:44:03.017Z,12.37
2019-05-02T23:46:32.298Z,12.20
2019-05-02T23:49:02.131Z,11.40
2019-05-02T23:51:32.103Z,11.03
2019-05-02T23:54:02.238Z,10.87
2019-05-02T23:56:32.482Z,9.43
2019-05-02T23:59:02.799Z,10.03
